createdAt,value
2022-12-24T00:02:27.388Z,12.30
2022-12-24T00:05:01.060Z,12.30
2022-12-24T00:07:31.081Z,12.30
2022-12-24T00:10:01.390Z,12.20
2022-12-24T00:12:30.389Z,12.20
2022-12-24T00:14:58.450Z,12.20
2022-12-24T00:17:27.473Z,12.20
2022-12-24T00:19:56.584Z,12.20
2022-12-24T00:22:25.795Z,12.10
2022-12-24T00:24:54.760Z,12.00
2022-12-24T00:27:26.313Z,12.00
2022-12-24T00:29:56.746Z,12.00
2022-12-24T00:32:27.799Z,11.90
2022-12-24T00:34:57.806Z,11.80
2022-12-24T00:37:27.055Z,11.80
2022-12-24T00:39:56.413Z,11.90
2022-12-24T00:42:26.894Z,11.80
2022-12-24T00:44:54.770Z,11.80
2022-12-24T00:47:23.683Z,11.80
2022-12-24T00:49:53.056Z,11.80
2022-12-24T00:52:24.136Z,11.70
2022-12-24T00:54:53.022Z,11.70
2022-12-24T00:57:24.310Z,11.70
2022-12-24T00:59:54.527Z,11.60
2022-12-24T01:02:24.869Z,11.60
2022-12-24T01:05:12.047Z,11.60
2022-12-24T01:07:42.387Z,11.60
2022-12-24T01:10:13.164Z,11.70
2022-12-24T01:12:42.807Z,11.70
2022-12-24T01:15:15.452Z,11.60
2022-12-24T01:17:44.642Z,11.40
2022-12-24T01:20:16.972Z,11.30
2022-12-24T01:22:46.140Z,11.10
2022-12-24T01:25:15.439Z,11.10
2022-12-24T01:27:44.805Z,11.30
2022-12-24T01:30:18.713Z,11.40
2022-12-24T01:32:47.642Z,11.60
2022-12-24T01:35:16.905Z,11.70
2022-12-24T01:37:47.226Z,11.70
2022-12-24T01:40:36.610Z,11.60
2022-12-24T01:43:30.719Z,11.60
2022-12-24T01:46:04.468Z,11.60
2022-12-24T01:48:41.084Z,11.50
2022-12-24T01:51:20.800Z,11.50
2022-12-24T01:53:55.620Z,11.30
2022-12-24T01:56:25.812Z,11.20
2022-12-24T01:59:00.589Z,11.20
2022-12-24T02:01:31.438Z,11.20
2022-12-24T02:04:01.015Z,11.20
2022-12-24T02:06:29.946Z,11.10
2022-12-24T02:08:59.155Z,11.20
2022-12-24T02:11:28.425Z,11.20
2022-12-24T02:14:01.309Z,11.20
2022-12-24T02:16:43.140Z,11.20
2022-12-24T02:19:41.969Z,11.30
2022-12-24T02:22:16.257Z,11.30
2022-12-24T02:25:13.642Z,11.30
2022-12-24T02:27:57.494Z,11.30
2022-12-24T02:30:35.588Z,11.30
2022-12-24T02:33:23.664Z,11.30
2022-12-24T02:36:04.295Z,11.40
2022-12-24T02:38:35.535Z,11.50
2022-12-24T02:41:08.865Z,11.60
2022-12-24T02:43:40.830Z,11.50
2022-12-24T02:46:14.930Z,11.60
2022-12-24T02:48:49.845Z,11.50
2022-12-24T02:51:27.200Z,11.40
2022-12-24T02:53:59.862Z,11.50
2022-12-24T02:56:44.831Z,11.50
2022-12-24T02:59:42.505Z,11.40
2022-12-24T03:02:28.059Z,11.40
2022-12-24T03:05:05.652Z,11.30
2022-12-24T03:07:40.114Z,11.30
2022-12-24T03:10:17.932Z,11.30
2022-12-24T03:12:51.833Z,11.30
2022-12-24T03:15:27.193Z,11.20
2022-12-24T03:18:03.304Z,11.20
2022-12-24T03:20:38.675Z,11.20
2022-12-24T03:23:08.225Z,11.10
2022-12-24T03:25:41.354Z,11.20
2022-12-24T03:28:13.255Z,11.40
2022-12-24T03:30:43.946Z,11.40
2022-12-24T03:33:18.346Z,11.40
2022-12-24T03:35:47.619Z,11.40
2022-12-24T03:38:16.849Z,11.40
2022-12-24T03:40:46.117Z,11.40
2022-12-24T03:43:15.351Z,11.30
2022-12-24T03:45:47.133Z,11.40
2022-12-24T03:48:19.981Z,11.40
2022-12-24T03:50:49.314Z,11.40
2022-12-24T03:53:20.430Z,11.50
2022-12-24T03:55:51.436Z,11.50
2022-12-24T03:58:21.086Z,11.40
2022-12-24T04:00:48.950Z,11.50
2022-12-24T04:03:19.661Z,11.50
2022-12-24T04:05:48.822Z,11.60
2022-12-24T04:08:17.973Z,11.60
2022-12-24T04:10:47.472Z,11.70
2022-12-24T04:13:16.455Z,11.70
2022-12-24T04:15:47.725Z,11.70
2022-12-24T04:18:18.677Z,11.70
2022-12-24T04:20:49.022Z,11.70
2022-12-24T04:23:17.955Z,11.60
2022-12-24T04:25:49.304Z,11.60
2022-12-24T04:28:21.342Z,11.60
2022-12-24T04:30:49.385Z,11.60
2022-12-24T04:33:17.236Z,11.60
2022-12-24T04:35:47.523Z,11.50
2022-12-24T04:38:16.874Z,11.50
2022-12-24T04:40:46.569Z,11.50
2022-12-24T04:43:15.787Z,11.60
2022-12-24T04:45:46.725Z,11.60
2022-12-24T04:48:16.705Z,11.50
2022-12-24T04:50:52.160Z,11.40
2022-12-24T04:53:23.897Z,11.40
2022-12-24T04:55:51.735Z,11.40
2022-12-24T04:58:20.596Z,11.40
2022-12-24T05:00:50.058Z,11.40
2022-12-24T05:03:21.656Z,11.50
2022-12-24T05:05:57.924Z,11.50
2022-12-24T05:08:31.123Z,11.50
2022-12-24T05:11:00.383Z,11.50
2022-12-24T05:13:40.460Z,11.50
2022-12-24T05:16:16.208Z,11.40
2022-12-24T05:18:46.169Z,11.40
2022-12-24T05:21:18.092Z,11.40
2022-12-24T05:24:03.928Z,11.50
2022-12-24T05:26:34.478Z,11.60
2022-12-24T05:29:04.938Z,11.60
2022-12-24T05:31:34.517Z,11.60
2022-12-24T05:34:03.701Z,11.60
2022-12-24T05:36:35.045Z,11.70
2022-12-24T05:39:07.222Z,11.60
2022-12-24T05:41:39.724Z,11.60
2022-12-24T05:44:09.176Z,11.60
2022-12-24T05:46:40.533Z,11.50
2022-12-24T05:49:08.547Z,11.60
2022-12-24T05:51:40.213Z,11.60
2022-12-24T05:54:09.597Z,11.60
2022-12-24T05:56:39.111Z,11.60
2022-12-24T05:59:10.378Z,11.50
2022-12-24T06:01:39.987Z,11.50
2022-12-24T06:04:11.734Z,11.60
2022-12-24T06:06:45.281Z,11.60
2022-12-24T06:09:15.043Z,11.60
2022-12-24T06:11:44.171Z,11.50
2022-12-24T06:14:12.354Z,11.50
2022-12-24T06:16:41.617Z,11.40
2022-12-24T06:19:10.545Z,11.50
2022-12-24T06:21:40.896Z,11.50
2022-12-24T06:24:10.082Z,11.50
2022-12-24T06:26:39.390Z,11.40
2022-12-24T06:29:08.367Z,11.40
2022-12-24T06:31:37.274Z,11.40
2022-12-24T06:34:05.094Z,11.30
2022-12-24T06:36:34.490Z,11.40
2022-12-24T06:39:05.562Z,11.40
2022-12-24T06:41:33.395Z,11.40
2022-12-24T06:44:02.671Z,11.30
2022-12-24T06:46:34.294Z,11.30
2022-12-24T06:49:04.409Z,11.30
2022-12-24T06:51:34.948Z,11.30
2022-12-24T06:54:05.880Z,11.30
2022-12-24T06:56:37.427Z,11.40
2022-12-24T06:59:06.863Z,11.50
2022-12-24T07:01:37.930Z,11.60
2022-12-24T07:04:14.523Z,11.50
2022-12-24T07:06:50.119Z,11.40
2022-12-24T07:09:21.747Z,11.50
2022-12-24T07:11:52.208Z,11.40
2022-12-24T07:14:22.844Z,11.40
2022-12-24T07:16:58.971Z,11.40
2022-12-24T07:19:28.291Z,11.60
2022-12-24T07:21:57.406Z,11.60
2022-12-24T07:24:30.113Z,11.50
2022-12-24T07:27:01.860Z,11.40
2022-12-24T07:29:31.777Z,11.40
2022-12-24T07:32:00.931Z,11.50
2022-12-24T07:34:29.846Z,11.40
2022-12-24T07:37:00.085Z,11.40
2022-12-24T07:39:42.843Z,11.40
2022-12-24T07:42:11.947Z,11.40
2022-12-24T07:44:42.251Z,11.50
2022-12-24T07:47:12.445Z,11.50
2022-12-24T07:49:44.017Z,11.50
2022-12-24T07:52:11.909Z,11.50
2022-12-24T07:54:42.245Z,11.50
2022-12-24T07:57:11.273Z,11.50
2022-12-24T07:59:40.282Z,11.50
2022-12-24T08:02:17.892Z,11.50
2022-12-24T08:04:47.605Z,11.60
2022-12-24T08:07:15.647Z,11.70
2022-12-24T08:09:46.097Z,11.70
2022-12-24T08:12:15.582Z,11.70
2022-12-24T08:14:44.642Z,11.70
2022-12-24T08:17:13.684Z,11.80
2022-12-24T08:19:42.666Z,11.80
2022-12-24T08:22:14.469Z,11.80
2022-12-24T08:24:48.665Z,11.90
2022-12-24T08:27:16.506Z,11.80
2022-12-24T08:29:45.539Z,11.80
2022-12-24T08:32:14.971Z,12.00
2022-12-24T08:34:42.807Z,12.00
2022-12-24T08:37:12.176Z,12.00
2022-12-24T08:39:41.368Z,11.90
2022-12-24T08:42:11.798Z,12.00
2022-12-24T08:44:41.057Z,12.40
2022-12-24T08:47:12.522Z,13.00
2022-12-24T08:49:41.673Z,13.30
2022-12-24T08:52:11.553Z,13.20
2022-12-24T08:54:40.521Z,13.10
2022-12-24T08:57:10.900Z,13.00
2022-12-24T08:59:39.928Z,12.80
2022-12-24T09:02:10.084Z,13.20
2022-12-24T09:04:40.874Z,13.40
2022-12-24T09:07:10.933Z,13.70
2022-12-24T09:09:40.187Z,14.20
2022-12-24T09:12:20.533Z,14.50
2022-12-24T09:14:51.478Z,14.60
2022-12-24T09:17:21.001Z,15.10
2022-12-24T09:19:52.710Z,15.10
2022-12-24T09:22:22.739Z,15.30
2022-12-24T09:24:51.899Z,15.00
2022-12-24T09:27:23.217Z,14.40
2022-12-24T09:29:52.281Z,14.10
2022-12-24T09:32:21.355Z,13.70
2022-12-24T09:34:50.957Z,13.60
2022-12-24T09:37:20.329Z,13.70
2022-12-24T09:39:49.568Z,13.90
2022-12-24T09:42:36.035Z,13.90
2022-12-24T09:45:09.371Z,13.80
2022-12-24T09:47:44.723Z,13.80
2022-12-24T09:50:35.470Z,13.90
2022-12-24T09:53:11.461Z,13.90
2022-12-24T09:55:45.643Z,13.80
2022-12-24T09:58:24.938Z,13.80
2022-12-24T10:00:55.481Z,13.90
2022-12-24T10:03:24.834Z,13.90
2022-12-24T10:06:06.705Z,13.80
2022-12-24T10:08:48.497Z,13.60
2022-12-24T10:11:26.641Z,13.40
2022-12-24T10:14:08.078Z,13.50
2022-12-24T10:16:48.228Z,13.50
2022-12-24T10:19:24.092Z,13.40
2022-12-24T10:22:06.187Z,13.40
2022-12-24T10:24:49.837Z,13.40
2022-12-24T10:27:25.657Z,13.40
2022-12-24T10:30:02.158Z,13.40
2022-12-24T10:32:36.455Z,13.40
2022-12-24T10:35:17.238Z,13.60
2022-12-24T10:37:48.824Z,13.70
2022-12-24T10:40:32.639Z,13.70
2022-12-24T10:43:01.819Z,13.60
2022-12-24T10:45:41.190Z,13.30
2022-12-24T10:48:18.454Z,13.30
2022-12-24T10:50:55.463Z,13.30
2022-12-24T10:53:34.153Z,13.30
2022-12-24T10:56:08.529Z,13.30
2022-12-24T10:58:38.823Z,13.30
2022-12-24T11:01:43.263Z,13.30
2022-12-24T11:04:17.573Z,13.20
2022-12-24T11:06:57.959Z,13.10
2022-12-24T11:09:29.015Z,13.20
2022-12-24T11:12:06.923Z,13.20
2022-12-24T11:14:40.366Z,13.30
2022-12-24T11:17:23.655Z,13.20
2022-12-24T11:19:53.186Z,13.20
2022-12-24T11:22:25.430Z,13.20
2022-12-24T11:25:08.756Z,13.20
2022-12-24T11:27:44.163Z,13.10
2022-12-24T11:30:25.464Z,13.10
2022-12-24T11:33:22.992Z,13.20
2022-12-24T11:36:00.897Z,13.20
2022-12-24T11:38:32.595Z,13.30
2022-12-24T11:41:05.434Z,13.30
2022-12-24T11:44:01.470Z,13.30
2022-12-24T11:46:42.370Z,13.30
2022-12-24T11:49:29.609Z,13.40
2022-12-24T11:52:22.314Z,13.50
2022-12-24T11:55:16.945Z,13.70
2022-12-24T11:58:01.464Z,13.80
2022-12-24T12:00:33.018Z,13.90
2022-12-24T12:03:03.983Z,13.80
2022-12-24T12:05:36.593Z,13.90
2022-12-24T12:08:15.346Z,14.00
2022-12-24T12:10:47.428Z,14.10
2022-12-24T12:13:20.016Z,14.00
2022-12-24T12:16:07.607Z,13.90
2022-12-24T12:18:39.445Z,13.90
2022-12-24T12:21:18.118Z,13.90
2022-12-24T12:23:53.476Z,14.00
2022-12-24T12:26:26.222Z,14.00
2022-12-24T12:29:01.319Z,14.00
2022-12-24T12:31:36.245Z,14.00
2022-12-24T12:34:08.040Z,14.00
2022-12-24T12:36:44.845Z,13.90
2022-12-24T12:39:14.085Z,13.80
2022-12-24T12:42:02.772Z,13.80
2022-12-24T12:45:00.266Z,13.80
2022-12-24T12:48:01.097Z,13.80
2022-12-24T12:50:38.433Z,13.80
2022-12-24T12:53:31.008Z,13.80
2022-12-24T12:56:12.685Z,13.70
2022-12-24T12:58:48.401Z,13.70
2022-12-24T13:01:32.560Z,13.70
2022-12-24T13:04:48.583Z,13.60
2022-12-24T13:08:06.547Z,13.70
2022-12-24T13:11:03.062Z,13.60
2022-12-24T13:14:07.420Z,13.50
2022-12-24T13:17:02.875Z,13.40
2022-12-24T13:19:45.205Z,13.30
2022-12-24T13:22:18.567Z,13.30
2022-12-24T13:24:57.905Z,13.20
2022-12-24T13:27:34.191Z,13.20
2022-12-24T13:30:31.958Z,13.10
2022-12-24T13:33:01.052Z,13.00
2022-12-24T13:35:56.694Z,13.00
2022-12-24T13:38:43.651Z,12.90
2022-12-24T13:41:57.493Z,13.00
2022-12-24T13:44:34.631Z,13.00
2022-12-24T13:47:22.940Z,12.90
2022-12-24T13:49:55.719Z,12.90
2022-12-24T13:52:30.062Z,12.80
2022-12-24T13:55:18.610Z,12.70
2022-12-24T13:58:00.197Z,12.70
2022-12-24T14:00:34.361Z,12.80
2022-12-24T14:03:24.423Z,12.70
2022-12-24T14:06:00.549Z,12.60
2022-12-24T14:08:36.525Z,12.70
2022-12-24T14:11:18.836Z,12.60
2022-12-24T14:14:14.914Z,12.60
2022-12-24T14:16:59.328Z,12.50
2022-12-24T14:19:37.342Z,12.50
2022-12-24T14:22:25.217Z,12.40
2022-12-24T14:24:59.318Z,12.40
2022-12-24T14:27:37.350Z,12.40
2022-12-24T14:30:09.594Z,12.40
2022-12-24T14:32:45.743Z,12.40
2022-12-24T14:35:19.260Z,12.30
2022-12-24T14:37:51.801Z,12.20
2022-12-24T14:40:31.918Z,12.20
2022-12-24T14:43:07.921Z,12.30
2022-12-24T14:45:46.364Z,12.40
2022-12-24T14:48:25.608Z,12.40
2022-12-24T14:51:08.561Z,12.40
2022-12-24T14:53:55.007Z,12.40
2022-12-24T14:56:25.802Z,12.30
2022-12-24T14:58:57.220Z,12.20
2022-12-24T15:01:28.567Z,12.20
2022-12-24T15:04:19.744Z,12.20
2022-12-24T15:06:52.552Z,12.10
2022-12-24T15:09:32.122Z,12.10
2022-12-24T15:12:03.810Z,12.00
2022-12-24T15:14:45.123Z,12.00
2022-12-24T15:17:16.233Z,11.90
2022-12-24T15:19:54.237Z,11.90
2022-12-24T15:22:29.673Z,12.00
2022-12-24T15:25:06.126Z,11.90
2022-12-24T15:27:45.286Z,11.90
2022-12-24T15:30:20.546Z,11.90
2022-12-24T15:32:51.992Z,11.80
2022-12-24T15:35:50.397Z,11.80
2022-12-24T15:38:34.772Z,11.70
2022-12-24T15:41:10.184Z,11.60
2022-12-24T15:43:41.699Z,11.60
2022-12-24T15:46:09.582Z,11.50
2022-12-24T15:48:39.329Z,11.50
2022-12-24T15:51:09.933Z,11.60
2022-12-24T15:53:44.821Z,11.60
2022-12-24T15:56:30.039Z,11.70
2022-12-24T15:59:14.016Z,11.80
2022-12-24T16:01:45.592Z,11.70
2022-12-24T16:04:19.536Z,11.70
2022-12-24T16:06:58.656Z,11.70
2022-12-24T16:09:46.266Z,11.70
2022-12-24T16:12:21.767Z,11.60
2022-12-24T16:14:57.369Z,11.50
2022-12-24T16:17:35.191Z,11.50
2022-12-24T16:20:08.199Z,11.40
2022-12-24T16:22:43.399Z,11.40
2022-12-24T16:25:30.925Z,11.40
2022-12-24T16:28:00.967Z,11.40
2022-12-24T16:30:31.491Z,11.50
2022-12-24T16:33:03.030Z,11.40
2022-12-24T16:35:33.344Z,11.40
2022-12-24T16:38:07.012Z,11.40
2022-12-24T16:40:36.269Z,11.40
2022-12-24T16:43:22.900Z,11.40
2022-12-24T16:45:52.231Z,11.30
2022-12-24T16:48:23.657Z,11.30
2022-12-24T16:50:53.684Z,11.40
2022-12-24T16:53:25.466Z,11.50
2022-12-24T16:55:55.479Z,11.50
2022-12-24T16:58:27.400Z,11.50
2022-12-24T17:00:58.638Z,11.50
2022-12-24T17:03:28.197Z,11.50
2022-12-24T17:06:00.486Z,11.50
2022-12-24T17:08:30.974Z,11.50
2022-12-24T17:11:00.306Z,11.50
2022-12-24T17:13:29.720Z,11.40
2022-12-24T17:15:58.785Z,11.30
2022-12-24T17:18:27.777Z,11.30
2022-12-24T17:21:00.499Z,11.40
2022-12-24T17:23:31.115Z,11.40
2022-12-24T17:26:00.615Z,11.30
2022-12-24T17:28:29.681Z,11.20
2022-12-24T17:30:58.943Z,11.30
2022-12-24T17:33:28.445Z,11.20
2022-12-24T17:35:57.924Z,11.10
2022-12-24T17:38:28.944Z,11.10
2022-12-24T17:41:03.776Z,11.10
2022-12-24T17:43:34.627Z,11.10
2022-12-24T17:46:06.109Z,11.20
2022-12-24T17:48:35.417Z,11.10
2022-12-24T17:51:05.825Z,11.00
2022-12-24T17:53:38.355Z,10.90
2022-12-24T17:56:14.492Z,10.80
2022-12-24T17:58:45.560Z,10.80
2022-12-24T18:01:18.650Z,10.90
2022-12-24T18:03:49.486Z,10.80
2022-12-24T18:06:19.116Z,10.70
2022-12-24T18:08:48.822Z,10.60
2022-12-24T18:11:29.568Z,10.40
2022-12-24T18:14:01.327Z,10.30
2022-12-24T18:16:34.239Z,10.30
2022-12-24T18:19:04.539Z,10.30
2022-12-24T18:21:34.883Z,10.30
2022-12-24T18:24:04.313Z,10.30
2022-12-24T18:26:49.297Z,10.60
2022-12-24T18:29:20.973Z,10.70
2022-12-24T18:31:50.180Z,10.80
2022-12-24T18:34:20.627Z,10.80
2022-12-24T18:36:55.078Z,10.80
2022-12-24T18:39:27.049Z,10.90
2022-12-24T18:41:59.488Z,10.80
2022-12-24T18:44:30.252Z,10.70
2022-12-24T18:46:59.782Z,10.70
2022-12-24T18:49:31.594Z,10.70
2022-12-24T18:52:01.047Z,10.70
2022-12-24T18:54:32.348Z,10.60
2022-12-24T18:57:03.381Z,10.50
2022-12-24T18:59:36.300Z,10.40
2022-12-24T19:02:05.736Z,10.50
2022-12-24T19:04:34.928Z,10.60
2022-12-24T19:07:06.356Z,10.70
2022-12-24T19:09:37.632Z,10.70
2022-12-24T19:12:11.768Z,10.60
2022-12-24T19:14:40.949Z,10.40
2022-12-24T19:17:10.493Z,10.40
2022-12-24T19:19:41.375Z,10.30
2022-12-24T19:22:09.241Z,10.40
2022-12-24T19:24:38.217Z,10.30
2022-12-24T19:27:08.636Z,10.20
2022-12-24T19:29:37.680Z,10.10
2022-12-24T19:32:06.840Z,10.10
2022-12-24T19:34:35.832Z,10.10
2022-12-24T19:37:07.568Z,10.20
2022-12-24T19:39:38.219Z,10.20
2022-12-24T19:42:09.538Z,10.20
2022-12-24T19:44:38.858Z,10.20
2022-12-24T19:47:10.325Z,10.30
2022-12-24T19:49:41.604Z,10.20
2022-12-24T19:52:13.261Z,10.20
2022-12-24T19:54:42.672Z,10.30
2022-12-24T19:57:21.489Z,10.30
2022-12-24T19:59:50.988Z,10.40
2022-12-24T20:02:24.723Z,10.40
2022-12-24T20:04:52.709Z,10.30
2022-12-24T20:07:21.700Z,10.30
2022-12-24T20:09:50.801Z,10.40
2022-12-24T20:12:22.301Z,10.30
2022-12-24T20:14:55.291Z,10.30
2022-12-24T20:17:24.731Z,10.20
2022-12-24T20:19:55.741Z,10.20
2022-12-24T20:22:27.245Z,10.10
2022-12-24T20:24:57.954Z,10.10
2022-12-24T20:27:33.873Z,10.10
2022-12-24T20:30:05.325Z,10.20
2022-12-24T20:32:35.933Z,10.20
2022-12-24T20:35:05.645Z,10.20
2022-12-24T20:37:43.666Z,10.10
2022-12-24T20:40:17.786Z,10.10
2022-12-24T20:42:54.538Z,10.00
2022-12-24T20:45:24.612Z,10.00
2022-12-24T20:47:52.825Z,10.00
2022-12-24T20:50:24.958Z,10.10
2022-12-24T20:52:54.465Z,10.10
2022-12-24T20:55:25.867Z,10.20
2022-12-24T20:57:56.125Z,10.20
2022-12-24T21:00:26.125Z,10.20
2022-12-24T21:02:55.474Z,10.20
2022-12-24T21:05:24.578Z,10.20
2022-12-24T21:07:55.897Z,10.20
2022-12-24T21:10:33.856Z,10.20
2022-12-24T21:13:05.222Z,10.20
2022-12-24T21:15:37.115Z,10.10
2022-12-24T21:18:11.561Z,10.10
2022-12-24T21:20:43.480Z,10.00
2022-12-24T21:23:12.643Z,10.00
2022-12-24T21:25:42.113Z,10.00
2022-12-24T21:28:12.423Z,9.90
2022-12-24T21:30:42.933Z,9.80
2022-12-24T21:33:10.726Z,9.70
2022-12-24T21:35:38.537Z,9.70
2022-12-24T21:38:06.319Z,9.80
2022-12-24T21:40:34.218Z,9.80
2022-12-24T21:43:02.081Z,9.70
2022-12-24T21:45:31.284Z,9.70
2022-12-24T21:47:59.155Z,9.60
2022-12-24T21:50:44.701Z,9.60
2022-12-24T21:53:30.167Z,9.50
2022-12-24T21:55:57.976Z,9.50
2022-12-24T21:58:25.793Z,9.60
2022-12-24T22:00:55.103Z,9.60
2022-12-24T22:03:23.048Z,9.60
2022-12-24T22:05:50.853Z,9.60
2022-12-24T22:08:35.906Z,9.60
2022-12-24T22:11:21.914Z,9.50
2022-12-24T22:13:49.769Z,9.50
2022-12-24T22:16:18.926Z,9.50
2022-12-24T22:18:46.764Z,9.40
2022-12-24T22:21:14.595Z,9.40
2022-12-24T22:23:42.869Z,9.40
2022-12-24T22:26:13.949Z,9.40
2022-12-24T22:28:41.853Z,9.50
2022-12-24T22:31:19.082Z,9.50
2022-12-24T22:33:47.066Z,9.50
2022-12-24T22:36:14.880Z,9.50
2022-12-24T22:38:44.111Z,9.50
2022-12-24T22:41:13.810Z,9.50
2022-12-24T22:43:41.897Z,9.50
2022-12-24T22:46:11.147Z,9.50
2022-12-24T22:48:41.717Z,9.50
2022-12-24T22:51:11.098Z,9.50
2022-12-24T22:53:38.986Z,9.50
2022-12-24T22:56:07.957Z,9.50
2022-12-24T22:58:36.969Z,9.50
2022-12-24T23:01:05.089Z,9.40
2022-12-24T23:03:33.066Z,9.40
2022-12-24T23:06:04.071Z,9.50
2022-12-24T23:08:33.390Z,9.40
2022-12-24T23:11:07.892Z,9.40
2022-12-24T23:13:54.317Z,9.40
2022-12-24T23:16:22.205Z,9.40
2022-12-24T23:18:50.156Z,9.40
2022-12-24T23:21:19.403Z,9.30
2022-12-24T23:23:47.629Z,9.30
2022-12-24T23:26:17.328Z,9.20
2022-12-24T23:28:46.066Z,9.20
2022-12-24T23:31:14.676Z,9.20
2022-12-24T23:33:43.043Z,9.20
2022-12-24T23:36:10.951Z,9.20
2022-12-24T23:38:40.104Z,9.20
2022-12-24T23:41:09.808Z,9.20
2022-12-24T23:43:38.642Z,9.20
2022-12-24T23:46:06.882Z,9.20
2022-12-24T23:48:34.790Z,9.20
2022-12-24T23:51:08.574Z,9.10
2022-12-24T23:53:36.510Z,9.10
2022-12-24T23:56:06.792Z,9.10
2022-12-24T23:58:34.793Z,9.10
